createdAt,value
2019-03-18T00:01:07.113Z,100018.84
2019-03-18T00:03:35.562Z,100019.90
2019-03-18T00:06:23.365Z,100022.50
2019-03-18T00:09:11.130Z,100028.05
2019-03-18T00:14:13.278Z,100028.83
2019-03-18T00:16:41.701Z,100030.78
2019-03-18T00:19:10.181Z,100029.55
2019-03-18T00:21:38.629Z,100029.56
2019-03-18T00:24:07.077Z,100038.81
2019-03-18T00:29:09.153Z,100040.61
2019-03-18T00:31:37.664Z,100047.68
2019-03-18T00:34:06.114Z,100047.73
2019-03-18T00:36:34.567Z,100051.94
2019-03-18T00:41:37.452Z,100058.58
2019-03-18T00:46:40.313Z,100052.89
2019-03-18T00:49:08.761Z,100058.23
2019-03-18T00:51:37.236Z,100057.70
2019-03-18T00:54:05.684Z,100056.86
2019-03-18T00:56:34.141Z,100055.10
2019-03-18T00:59:02.661Z,100051.14
2019-03-18T01:01:31.193Z,100057.33
2019-03-18T01:03:59.657Z,100057.13
2019-03-18T01:06:47.433Z,100058.16
2019-03-18T01:09:15.882Z,100052.38
2019-03-18T01:11:44.329Z,100050.66
2019-03-18T01:14:12.837Z,100043.38
2019-03-18T01:16:41.291Z,100047.17
2019-03-18T01:19:09.741Z,100043.03
2019-03-18T01:21:38.233Z,100046.34
2019-03-18T01:24:06.689Z,100052.89
2019-03-18T01:26:35.135Z,100053.41
2019-03-18T01:29:03.659Z,100060.34
2019-03-18T01:31:32.064Z,100063.44
2019-03-18T01:34:00.513Z,100059.53
2019-03-18T01:36:29.000Z,100069.31
2019-03-18T01:38:57.461Z,100068.27
2019-03-18T01:41:25.897Z,100069.33
2019-03-18T01:46:28.233Z,100070.41
2019-03-18T01:51:31.272Z,100071.80
2019-03-18T01:56:34.178Z,100064.47
2019-03-18T01:59:02.640Z,100073.30
2019-03-18T02:04:05.026Z,100071.55
2019-03-18T02:06:33.583Z,100072.01
2019-03-18T02:11:36.486Z,100084.36
2019-03-18T02:14:05.054Z,100078.28
2019-03-18T02:16:33.507Z,100078.31
2019-03-18T02:19:21.300Z,100075.70
2019-03-18T02:21:49.745Z,100077.06
2019-03-18T02:24:18.234Z,100082.30
2019-03-18T02:27:06.114Z,100086.69
2019-03-18T02:29:34.559Z,100081.45
2019-03-18T02:32:03.070Z,100079.28
2019-03-18T02:34:31.582Z,100080.58
2019-03-18T02:37:19.269Z,100080.16
2019-03-18T02:42:28.424Z,100084.06
2019-03-18T02:44:56.871Z,100081.88
2019-03-18T02:47:25.313Z,100076.21
2019-03-18T02:52:27.423Z,100080.58
2019-03-18T02:54:55.938Z,100081.45
2019-03-18T02:57:43.864Z,100084.94
2019-03-18T03:00:52.226Z,100083.62
2019-03-18T03:03:20.775Z,100089.30
2019-03-18T03:05:49.239Z,100087.96
2019-03-18T03:08:17.684Z,100091.00
2019-03-18T03:10:46.526Z,100093.15
2019-03-18T03:13:14.995Z,100088.69
2019-03-18T03:15:43.535Z,100092.64
2019-03-18T03:18:12.160Z,100100.47
2019-03-18T03:20:40.676Z,100106.61
2019-03-18T03:23:09.187Z,100106.13
2019-03-18T03:25:37.674Z,100104.84
2019-03-18T03:28:06.136Z,100106.21
2019-03-18T03:30:34.610Z,100107.95
2019-03-18T03:33:03.259Z,100110.58
2019-03-18T03:35:31.710Z,100103.52
2019-03-18T03:38:00.157Z,100105.30
2019-03-18T03:40:28.642Z,100098.77
2019-03-18T03:42:57.110Z,100109.70
2019-03-18T03:45:25.574Z,100105.75
2019-03-18T03:47:54.048Z,100117.59
2019-03-18T03:50:22.515Z,100116.70
2019-03-18T03:52:51.036Z,100119.36
2019-03-18T03:58:13.004Z,100122.86
2019-03-18T04:00:41.574Z,100118.87
2019-03-18T04:06:37.488Z,100117.53
2019-03-18T04:09:45.857Z,100114.08
2019-03-18T04:12:33.533Z,100116.22
2019-03-18T04:15:02.002Z,100106.11
2019-03-18T04:17:30.435Z,100102.13
2019-03-18T04:19:59.025Z,100106.50
2019-03-18T04:22:27.438Z,100110.83
2019-03-18T04:24:55.890Z,100110.78
2019-03-18T04:27:24.984Z,100112.06
2019-03-18T04:30:13.760Z,100119.96
2019-03-18T04:33:01.506Z,100126.56
2019-03-18T04:35:29.956Z,100131.36
2019-03-18T04:37:58.406Z,100135.37
2019-03-18T04:40:26.893Z,100134.09
2019-03-18T04:42:55.344Z,100139.84
2019-03-18T04:45:23.793Z,100138.94
2019-03-18T04:47:52.310Z,100144.23
2019-03-18T04:50:39.891Z,100152.09
2019-03-18T04:53:08.398Z,100159.54
2019-03-18T04:55:36.845Z,100162.66
2019-03-18T04:58:05.297Z,100170.14
2019-03-18T05:03:07.518Z,100173.19
2019-03-18T05:05:35.965Z,100173.62
2019-03-18T05:10:39.014Z,100181.96
2019-03-18T05:15:40.985Z,100190.65
2019-03-18T05:18:09.438Z,100193.77
2019-03-18T05:23:11.668Z,100197.71
2019-03-18T05:25:40.117Z,100202.97
2019-03-18T05:28:08.601Z,100203.47
2019-03-18T05:30:37.052Z,100197.77
2019-03-18T05:33:05.502Z,100203.06
2019-03-18T05:35:53.244Z,100208.31
2019-03-18T05:38:21.684Z,100203.03
2019-03-18T05:40:50.133Z,100206.08
2019-03-18T05:43:18.621Z,100213.52
2019-03-18T05:45:47.089Z,100209.13
2019-03-18T05:48:15.541Z,100202.98
2019-03-18T05:53:18.325Z,100206.46
2019-03-18T05:56:06.123Z,100209.54
2019-03-18T05:58:34.569Z,100213.50
2019-03-18T06:01:03.032Z,100209.48
2019-03-18T06:03:31.509Z,100212.98
2019-03-18T06:05:59.957Z,100212.98
2019-03-18T06:08:28.410Z,100217.30
2019-03-18T06:10:56.896Z,100227.80
2019-03-18T06:13:25.348Z,100233.48
2019-03-18T06:15:53.798Z,100233.54
2019-03-18T06:20:56.623Z,100253.66
2019-03-18T06:23:44.350Z,100263.29
2019-03-18T06:26:12.800Z,100265.48
2019-03-18T06:28:41.251Z,100265.42
2019-03-18T06:33:43.958Z,100261.45
2019-03-18T06:36:31.598Z,100268.03
2019-03-18T06:41:33.752Z,100278.45
2019-03-18T06:44:02.211Z,100278.02
2019-03-18T06:46:30.687Z,100288.86
2019-03-18T06:48:59.135Z,100291.95
2019-03-18T06:51:27.586Z,100305.48
2019-03-18T06:53:56.076Z,100296.55
2019-03-18T06:56:24.522Z,100309.50
2019-03-18T06:58:52.967Z,100319.54
2019-03-18T07:01:40.659Z,100331.75
2019-03-18T07:04:28.306Z,100337.44
2019-03-18T07:09:30.601Z,100340.32
2019-03-18T07:11:59.050Z,100347.13
2019-03-18T07:17:01.930Z,100350.79
2019-03-18T07:22:23.634Z,100362.53
2019-03-18T07:24:52.156Z,100359.41
2019-03-18T07:27:20.588Z,100358.03
2019-03-18T07:29:49.042Z,100363.75
2019-03-18T07:32:17.556Z,100362.98
2019-03-18T07:34:46.016Z,100361.84
2019-03-18T07:37:14.454Z,100370.67
2019-03-18T07:40:02.322Z,100371.51
2019-03-18T07:42:30.773Z,100371.30
2019-03-18T07:44:59.230Z,100368.72
2019-03-18T07:50:01.948Z,100380.22
2019-03-18T07:52:49.697Z,100379.80
2019-03-18T07:55:18.146Z,100384.16
2019-03-18T07:58:05.919Z,100380.67
2019-03-18T08:00:53.793Z,100379.17
2019-03-18T08:05:56.899Z,100391.05
2019-03-18T08:10:59.457Z,100386.25
2019-03-18T08:13:27.910Z,100397.33
2019-03-18T08:16:15.525Z,100406.72
2019-03-18T08:18:43.973Z,100416.75
2019-03-18T08:21:31.650Z,100418.20
2019-03-18T08:24:19.295Z,100422.80
2019-03-18T08:26:47.782Z,100429.55
2019-03-18T08:29:16.238Z,100433.16
2019-03-18T08:31:44.689Z,100441.10
2019-03-18T08:34:13.205Z,100439.78
2019-03-18T08:36:41.678Z,100442.89
2019-03-18T08:39:10.121Z,100447.59
2019-03-18T08:41:58.005Z,100452.95
2019-03-18T08:44:26.534Z,100451.65
2019-03-18T08:46:54.983Z,100447.47
2019-03-18T08:51:57.734Z,100442.09
2019-03-18T08:54:26.184Z,100442.52
2019-03-18T08:57:13.862Z,100449.29
2019-03-18T08:59:42.310Z,100459.12
2019-03-18T09:02:10.758Z,100457.50
2019-03-18T09:04:39.318Z,100454.80
2019-03-18T09:07:07.840Z,100457.80
2019-03-18T09:09:36.376Z,100460.37
2019-03-18T09:12:05.070Z,100454.84
2019-03-18T09:14:33.509Z,100455.02
2019-03-18T09:17:01.959Z,100460.63
2019-03-18T09:19:30.607Z,100463.05
2019-03-18T09:21:59.060Z,100465.86
2019-03-18T09:24:27.576Z,100474.20
2019-03-18T09:27:02.390Z,100479.19
2019-03-18T09:29:26.442Z,100481.95
2019-03-18T09:31:54.896Z,100485.92
2019-03-18T09:34:23.402Z,100484.39
2019-03-18T09:36:51.898Z,100496.27
2019-03-18T09:39:20.347Z,100494.33
2019-03-18T09:41:48.863Z,100492.46
2019-03-18T09:44:17.319Z,100489.91
2019-03-18T09:46:45.789Z,100489.66
2019-03-18T09:49:21.442Z,100495.72
2019-03-18T09:51:44.767Z,100495.84
2019-03-18T09:54:13.481Z,100499.78
2019-03-18T09:56:42.121Z,100495.77
2019-03-18T09:59:10.578Z,100494.65
2019-03-18T10:01:39.040Z,100499.81
2019-03-18T10:04:07.523Z,100498.00
2019-03-18T10:06:35.969Z,100497.07
2019-03-18T10:09:06.703Z,100504.54
2019-03-18T10:11:35.185Z,100498.39
2019-03-18T10:14:03.632Z,100504.80
2019-03-18T10:16:32.150Z,100497.91
2019-03-18T10:19:00.667Z,100500.05
2019-03-18T10:21:29.187Z,100509.77
2019-03-18T10:23:57.643Z,100514.09
2019-03-18T10:26:26.217Z,100515.70
2019-03-18T10:28:54.670Z,100517.91
2019-03-18T10:31:23.192Z,100509.70
2019-03-18T10:33:51.713Z,100520.77
2019-03-18T10:36:20.176Z,100521.75
2019-03-18T10:38:48.629Z,100534.47
2019-03-18T10:41:17.599Z,100538.61
2019-03-18T10:43:46.113Z,100538.84
2019-03-18T10:46:14.638Z,100541.80
2019-03-18T10:48:43.142Z,100539.98
2019-03-18T10:51:11.674Z,100543.96
2019-03-18T10:53:40.156Z,100550.25
2019-03-18T10:56:08.643Z,100553.38
2019-03-18T10:58:37.066Z,100559.16
2019-03-18T11:01:05.514Z,100566.99
2019-03-18T11:03:34.070Z,100572.23
2019-03-18T11:06:02.538Z,100567.13
2019-03-18T11:08:31.016Z,100564.34
2019-03-18T11:10:59.943Z,100572.23
2019-03-18T11:13:28.392Z,100569.94
2019-03-18T11:15:56.921Z,100563.83
2019-03-18T11:18:25.479Z,100564.12
2019-03-18T11:20:54.066Z,100570.79
2019-03-18T11:23:22.609Z,100562.91
2019-03-18T11:25:51.117Z,100561.07
2019-03-18T11:28:19.569Z,100553.20
2019-03-18T11:30:48.095Z,100551.76
2019-03-18T11:33:16.586Z,100545.71
2019-03-18T11:35:45.054Z,100543.87
2019-03-18T11:38:13.515Z,100541.28
2019-03-18T11:40:42.123Z,100540.70
2019-03-18T11:43:10.583Z,100531.44
2019-03-18T11:45:39.084Z,100534.06
2019-03-18T11:48:07.646Z,100540.70
2019-03-18T11:50:36.168Z,100546.55
2019-03-18T11:53:13.878Z,100542.19
2019-03-18T11:55:35.688Z,100548.49
2019-03-18T11:58:04.265Z,100548.63
2019-03-18T12:00:32.835Z,100557.55
2019-03-18T12:03:01.390Z,100555.17
2019-03-18T12:05:29.979Z,100549.06
2019-03-18T12:07:58.436Z,100550.14
2019-03-18T12:10:27.079Z,100541.91
2019-03-18T12:12:55.637Z,100537.39
2019-03-18T12:15:25.827Z,100537.67
2019-03-18T12:17:54.552Z,100542.48
2019-03-18T12:20:25.491Z,100546.58
2019-03-18T12:22:53.177Z,100542.63
2019-03-18T12:25:22.167Z,100542.48
2019-03-18T12:27:50.713Z,100538.84
2019-03-18T12:30:20.673Z,100536.11
2019-03-18T12:32:49.229Z,100540.38
2019-03-18T12:35:17.825Z,100535.97
2019-03-18T12:37:46.337Z,100546.80
2019-03-18T12:40:18.393Z,100546.45
2019-03-18T12:42:46.916Z,100544.70
2019-03-18T12:45:16.421Z,100557.19
2019-03-18T12:47:44.964Z,100545.13
2019-03-18T12:50:15.823Z,100543.25
2019-03-18T12:52:44.347Z,100549.05
2019-03-18T12:55:13.304Z,100549.75
2019-03-18T12:57:41.864Z,100543.07
2019-03-18T13:00:16.051Z,100543.42
2019-03-18T13:02:44.546Z,100537.45
2019-03-18T13:05:13.552Z,100539.51
2019-03-18T13:07:42.175Z,100540.17
2019-03-18T13:10:15.711Z,100534.76
2019-03-18T13:12:44.170Z,100533.11
2019-03-18T13:15:14.955Z,100537.03
2019-03-18T13:17:44.099Z,100532.59
2019-03-18T13:20:20.221Z,100523.58
2019-03-18T13:22:48.776Z,100524.23
2019-03-18T13:25:17.288Z,100520.44
2019-03-18T13:27:45.884Z,100518.42
2019-03-18T13:30:16.275Z,100522.37
2019-03-18T13:32:44.792Z,100512.50
2019-03-18T13:35:13.730Z,100516.56
2019-03-18T13:37:42.301Z,100513.12
2019-03-18T13:40:15.465Z,100516.86
2019-03-18T13:42:43.916Z,100512.13
2019-03-18T13:45:17.602Z,100509.89
2019-03-18T13:47:46.150Z,100507.58
2019-03-18T13:50:18.808Z,100503.85
2019-03-18T13:52:47.288Z,100505.75
2019-03-18T13:55:15.925Z,100505.68
2019-03-18T13:57:44.560Z,100506.13
2019-03-18T14:00:16.396Z,100504.02
2019-03-18T14:02:44.983Z,100506.42
2019-03-18T14:05:13.586Z,100506.84
2019-03-18T14:07:43.302Z,100503.67
2019-03-18T14:10:23.347Z,100509.88
2019-03-18T14:12:51.899Z,100515.80
2019-03-18T14:15:22.570Z,100520.52
2019-03-18T14:17:51.158Z,100529.31
2019-03-18T14:20:22.699Z,100531.66
2019-03-18T14:22:51.305Z,100535.07
2019-03-18T14:25:19.822Z,100524.84
2019-03-18T14:27:48.377Z,100541.91
2019-03-18T14:30:23.744Z,100545.11
2019-03-18T14:32:52.188Z,100542.84
2019-03-18T14:35:22.180Z,100548.03
2019-03-18T14:37:50.767Z,100544.09
2019-03-18T14:40:25.789Z,100539.62
2019-03-18T14:42:54.310Z,100538.14
2019-03-18T14:45:23.599Z,100534.36
2019-03-18T14:47:52.328Z,100545.92
2019-03-18T14:50:21.221Z,100544.03
2019-03-18T14:52:49.740Z,100546.03
2019-03-18T14:55:18.969Z,100537.31
2019-03-18T14:57:47.794Z,100534.33
2019-03-18T15:00:26.923Z,100535.67
2019-03-18T15:02:55.522Z,100528.81
2019-03-18T15:05:23.970Z,100526.69
2019-03-18T15:08:11.858Z,100530.87
2019-03-18T15:10:40.308Z,100534.50
2019-03-18T15:13:08.751Z,100535.37
2019-03-18T15:18:10.902Z,100546.88
2019-03-18T15:20:39.355Z,100547.60
2019-03-18T15:23:27.231Z,100548.20
2019-03-18T15:25:55.738Z,100540.62
2019-03-18T15:28:24.192Z,100539.14
2019-03-18T15:33:45.901Z,100550.10
2019-03-18T15:38:48.734Z,100550.08
2019-03-18T15:41:17.185Z,100560.31
2019-03-18T15:46:20.045Z,100551.80
2019-03-18T15:48:48.538Z,100553.48
2019-03-18T15:51:16.995Z,100551.16
2019-03-18T15:53:45.445Z,100551.56
2019-03-18T15:56:13.933Z,100553.52
2019-03-18T15:58:42.386Z,100555.19
2019-03-18T16:01:10.845Z,100556.09
2019-03-18T16:06:13.317Z,100547.83
2019-03-18T16:08:41.770Z,100554.80
2019-03-18T16:11:29.442Z,100554.14
2019-03-18T16:13:57.900Z,100563.08
2019-03-18T16:16:26.352Z,100569.39
2019-03-18T16:18:54.834Z,100566.28
2019-03-18T16:21:23.289Z,100566.81
2019-03-18T16:23:51.739Z,100571.72
2019-03-18T16:28:53.995Z,100573.67
2019-03-18T16:31:22.531Z,100575.13
2019-03-18T16:36:25.131Z,100581.12
2019-03-18T16:38:53.651Z,100585.42
2019-03-18T16:41:22.142Z,100585.47
2019-03-18T16:43:50.602Z,100575.16
2019-03-18T16:46:19.049Z,100577.73
2019-03-18T16:51:21.522Z,100587.28
2019-03-18T16:53:50.035Z,100592.64
2019-03-18T16:56:18.478Z,100604.35
2019-03-18T16:58:46.935Z,100623.56
2019-03-18T17:01:15.414Z,100639.72
2019-03-18T17:04:03.060Z,100636.30
2019-03-18T17:06:31.562Z,100647.13
2019-03-18T17:09:00.017Z,100651.84
2019-03-18T17:11:28.472Z,100658.03
2019-03-18T17:14:16.281Z,100658.30
2019-03-18T17:16:44.730Z,100664.59
2019-03-18T17:19:13.177Z,100669.84
2019-03-18T17:24:16.086Z,100673.17
2019-03-18T17:26:44.570Z,100686.48
2019-03-18T17:29:13.027Z,100693.27
2019-03-18T17:34:35.429Z,100696.19
2019-03-18T17:37:23.110Z,100700.02
2019-03-18T17:39:51.564Z,100701.13
2019-03-18T17:42:20.018Z,100706.95
2019-03-18T17:44:48.505Z,100709.67
2019-03-18T17:47:36.146Z,100708.88
2019-03-18T17:50:44.568Z,100717.09
2019-03-18T17:53:13.085Z,100722.16
2019-03-18T17:56:00.850Z,100725.25
2019-03-18T17:58:29.301Z,100729.74
2019-03-18T18:03:46.875Z,100729.80
2019-03-18T18:06:15.343Z,100734.70
2019-03-18T18:11:39.210Z,100743.10
2019-03-18T18:14:07.657Z,100750.53
2019-03-18T18:16:36.104Z,100758.02
2019-03-18T18:21:57.318Z,100769.00
2019-03-18T18:24:25.765Z,100774.74
2019-03-18T18:26:54.212Z,100777.41
2019-03-18T18:29:41.944Z,100779.64
2019-03-18T18:32:10.388Z,100784.89
2019-03-18T18:34:38.838Z,100784.91
2019-03-18T18:37:26.643Z,100782.24
2019-03-18T18:39:55.092Z,100787.97
2019-03-18T18:42:23.541Z,100787.11
2019-03-18T18:47:25.791Z,100806.53
2019-03-18T18:49:54.252Z,100808.71
2019-03-18T18:57:49.886Z,100808.30
2019-03-18T19:00:58.259Z,100805.66
2019-03-18T19:06:00.582Z,100820.14
2019-03-18T19:08:29.024Z,100824.56
2019-03-18T19:13:31.715Z,100828.47
2019-03-18T19:16:00.201Z,100833.30
2019-03-18T19:18:47.841Z,100832.38
2019-03-18T19:21:16.360Z,100832.77
2019-03-18T19:23:44.806Z,100838.44
2019-03-18T19:26:13.252Z,100840.20
2019-03-18T19:28:41.742Z,100842.38
2019-03-18T19:31:10.188Z,100848.09
2019-03-18T19:33:38.644Z,100848.62
2019-03-18T19:36:26.469Z,100853.41
2019-03-18T19:38:54.921Z,100856.09
2019-03-18T19:41:23.370Z,100856.53
2019-03-18T19:43:51.853Z,100864.00
2019-03-18T19:46:20.302Z,100864.43
2019-03-18T19:48:48.748Z,100864.81
2019-03-18T19:51:36.755Z,100870.63
2019-03-18T19:54:05.347Z,100875.48
2019-03-18T19:56:33.803Z,100875.52
2019-03-18T19:59:02.284Z,100878.13
2019-03-18T20:01:30.739Z,100884.27
2019-03-18T20:03:59.193Z,100878.13
2019-03-18T20:06:27.672Z,100887.79
2019-03-18T20:08:56.131Z,100886.03
2019-03-18T20:11:43.874Z,100892.18
2019-03-18T20:14:32.745Z,100890.89
2019-03-18T20:19:35.638Z,100900.97
2019-03-18T20:22:04.085Z,100910.23
2019-03-18T20:27:06.581Z,100904.52
2019-03-18T20:32:09.166Z,100916.73
2019-03-18T20:34:37.643Z,100925.91
2019-03-18T20:37:06.093Z,100923.31
2019-03-18T20:39:34.541Z,100924.31
2019-03-18T20:42:03.021Z,100923.36
2019-03-18T20:44:31.468Z,100928.20
2019-03-18T20:46:59.919Z,100930.41
2019-03-18T20:49:28.435Z,100938.78
2019-03-18T20:51:56.899Z,100932.11
2019-03-18T20:54:25.350Z,100935.62
2019-03-18T20:59:27.636Z,100945.33
2019-03-18T21:02:15.507Z,100951.05
2019-03-18T21:04:43.957Z,100952.75
2019-03-18T21:07:12.404Z,100956.65
2019-03-18T21:12:33.852Z,100958.83
2019-03-18T21:15:21.467Z,100957.94
2019-03-18T21:18:09.251Z,100958.33
2019-03-18T21:23:30.674Z,100961.02
2019-03-18T21:25:59.166Z,100969.37
2019-03-18T21:28:27.622Z,100965.41
2019-03-18T21:30:56.062Z,100969.37
2019-03-18T21:33:24.547Z,100961.91
2019-03-18T21:35:55.658Z,100966.30
2019-03-18T21:38:23.163Z,100968.92
2019-03-18T21:40:51.676Z,100972.87
2019-03-18T21:46:27.182Z,100972.00
2019-03-18T21:48:55.634Z,100975.44
2019-03-18T21:51:24.080Z,100982.74
2019-03-18T21:56:45.385Z,100984.80
2019-03-18T21:59:13.900Z,100989.95
2019-03-18T22:01:42.352Z,100982.72
2019-03-18T22:04:29.956Z,100988.33
2019-03-18T22:06:58.405Z,100994.44
2019-03-18T22:09:26.859Z,100997.19
2019-03-18T22:14:29.694Z,101006.95
2019-03-18T22:16:58.173Z,101004.04
2019-03-18T22:19:26.625Z,101006.96
2019-03-18T22:21:55.073Z,101009.22
2019-03-18T22:24:23.564Z,101009.43
2019-03-18T22:27:11.208Z,101010.59
2019-03-18T22:29:39.708Z,101011.11
2019-03-18T22:32:08.157Z,101019.38
2019-03-18T22:34:56.031Z,101014.37
2019-03-18T22:37:24.477Z,101015.16
2019-03-18T22:39:52.926Z,101014.48
2019-03-18T22:42:21.415Z,101015.98
2019-03-18T22:44:49.866Z,101017.84
2019-03-18T22:47:18.316Z,101017.08
2019-03-18T22:50:06.321Z,101018.80
2019-03-18T22:52:34.834Z,101014.78
2019-03-18T22:55:43.310Z,101013.63
2019-03-18T22:58:11.762Z,101015.21
2019-03-18T23:00:59.375Z,101017.81
2019-03-18T23:03:27.832Z,101028.59
2019-03-18T23:05:56.284Z,101026.67
2019-03-18T23:08:43.890Z,101028.78
2019-03-18T23:17:10.117Z,101029.04
2019-03-18T23:19:38.572Z,101033.84
2019-03-18T23:22:07.081Z,101043.83
2019-03-18T23:24:35.538Z,101054.13
2019-03-18T23:27:03.978Z,101054.66
2019-03-18T23:29:32.467Z,101053.27
2019-03-18T23:32:20.225Z,101055.66
2019-03-18T23:34:48.704Z,101055.09
2019-03-18T23:37:17.154Z,101063.31
2019-03-18T23:39:45.602Z,101058.28
2019-03-18T23:44:48.357Z,101059.02
2019-03-18T23:47:16.842Z,101062.52
2019-03-18T23:49:47.502Z,101058.08
2019-03-18T23:52:34.688Z,101065.41
2019-03-18T23:58:11.225Z,101074.61
